Time;durP1;ratioP1;P1;durP2;ratioP2;P2;SDS_P1;SDS_P2;PMS_P1;PMS_P2;Temp;Humidity;BMP_temperature;BMP_pressure;BME280_temperature;BME280_humidity;BME280_pressure;Samples;Min_cycle;Max_cycle;Signal;HPM_P1;HPM_P2
2024/01/09 00:01:51;;;;;;;26.45;13.85;;;;;;;-144.32;100.00;68061.97;10427656;28;20257;-74
2024/01/09 00:06:51;;;;;;;25.95;13.20;;;;;;;-144.32;100.00;68061.97;10411171;28;20099;-76
2024/01/09 00:11:52;;;;;;;26.20;12.25;;;;;;;-144.32;100.00;68061.97;10427751;28;20574;-76
2024/01/09 00:16:53;;;;;;;25.48;13.35;;;;;;;-144.32;100.00;68061.97;10414118;28;20054;-74
2024/01/09 00:21:55;;;;;;;26.23;13.63;;;;;;;-144.32;100.00;68061.97;10386249;28;21320;-75
2024/01/09 00:26:57;;;;;;;26.35;12.43;;;;;;;-144.32;100.00;68061.97;10384013;28;20064;-73
2024/01/09 00:31:58;;;;;;;24.00;13.23;;;;;;;-144.32;100.00;68061.97;10352020;28;20977;-74
2024/01/09 00:36:58;;;;;;;29.10;13.07;;;;;;;-144.32;100.00;68061.97;10361560;28;20125;-75
2024/01/09 00:41:59;;;;;;;28.05;14.27;;;;;;;-144.32;100.00;68061.97;10360862;28;20051;-74
2024/01/09 00:46:59;;;;;;;27.52;13.38;;;;;;;-144.32;100.00;68061.97;10359209;28;20064;-75
2024/01/09 00:52:01;;;;;;;29.88;13.60;;;;;;;-144.32;100.00;68061.97;10344954;28;20502;-76
2024/01/09 00:57:01;;;;;;;24.10;12.15;;;;;;;-144.32;100.00;68061.97;10360518;28;20392;-74
2024/01/09 01:02:02;;;;;;;24.80;11.90;;;;;;;-144.32;100.00;68061.97;10361026;28;20050;-75
2024/01/09 01:07:03;;;;;;;24.42;12.90;;;;;;;-144.32;100.00;68061.97;10353965;28;20729;-76
2024/01/09 01:12:04;;;;;;;26.55;12.75;;;;;;;-144.32;100.00;68061.97;10343567;28;20100;-74
2024/01/09 01:17:04;;;;;;;25.90;13.18;;;;;;;-144.32;100.00;68061.97;10352762;28;20049;-74
2024/01/09 01:22:05;;;;;;;24.60;13.85;;;;;;;-144.32;100.00;68061.97;10354166;28;20139;-75
2024/01/09 01:27:07;;;;;;;27.30;12.20;;;;;;;-144.32;100.00;68061.97;10342350;28;21310;-76
2024/01/09 01:32:10;;;;;;;26.33;12.70;;;;;;;-144.32;100.00;68061.97;10363201;28;20808;-76
2024/01/09 01:37:16;;;;;;;24.75;12.35;;;;;;;-144.32;100.00;68061.97;10362194;28;20046;-74
2024/01/09 01:42:24;;;;;;;24.67;12.15;;;;;;;-144.32;100.00;68061.97;10336246;28;20061;-76
2024/01/09 01:47:30;;;;;;;25.52;12.02;;;;;;;-144.32;100.00;68061.97;10340029;28;20060;-75
2024/01/09 01:52:45;;;;;;;24.45;13.15;;;;;;;-144.32;100.00;68061.97;10322130;28;20054;-76
2024/01/09 01:58:48;;;;;;;25.17;12.20;;;;;;;-144.32;100.00;68061.97;10359531;28;20049;-76
2024/01/09 02:04:46;;;;;;;22.23;11.43;;;;;;;-144.32;100.00;68061.97;10342547;28;20050;-76
2024/01/09 02:10:46;;;;;;;23.30;11.90;;;;;;;-144.32;100.00;68061.97;10360601;28;20044;-77
2024/01/09 02:16:45;;;;;;;22.08;11.70;;;;;;;-144.32;100.00;68061.97;10362225;28;20039;-77
2024/01/09 02:22:44;;;;;;;23.23;11.75;;;;;;;-144.32;100.00;68061.97;10357099;28;20046;-75
2024/01/09 02:28:56;;;;;;;25.35;11.82;;;;;;;-144.32;100.00;68061.97;10354423;28;20057;-76
2024/01/09 02:34:55;;;;;;;26.08;12.27;;;;;;;-144.32;100.00;68061.97;10338393;28;20556;-74
2024/01/09 02:40:58;;;;;;;20.13;10.52;;;;;;;-144.32;100.00;68061.97;10351120;28;20799;-74
2024/01/09 02:46:58;;;;;;;23.60;11.70;;;;;;;-144.32;100.00;68061.97;10355719;28;20860;-75
2024/01/09 02:52:57;;;;;;;21.65;11.48;;;;;;;-144.32;100.00;68061.97;10398462;28;20038;-75
2024/01/09 02:58:57;;;;;;;27.42;12.70;;;;;;;-144.32;100.00;68061.97;10364117;28;20053;-75
2024/01/09 03:04:56;;;;;;;24.17;11.45;;;;;;;-144.32;100.00;68061.97;10354541;28;20516;-74
2024/01/09 03:10:55;;;;;;;25.65;11.27;;;;;;;-144.32;100.00;68061.97;10355675;28;20069;-76
2024/01/09 03:16:56;;;;;;;20.15;11.13;;;;;;;-144.32;100.00;68061.97;10347136;28;20073;-74
2024/01/09 03:22:55;;;;;;;18.38;10.52;;;;;;;-144.32;100.00;68061.97;10357616;28;20081;-75
2024/01/09 03:28:54;;;;;;;18.67;10.30;;;;;;;-144.32;100.00;68061.97;10361513;28;20045;-74
2024/01/09 03:34:53;;;;;;;24.95;10.48;;;;;;;-144.32;100.00;68061.97;10316757;28;20042;-77
2024/01/09 03:40:53;;;;;;;17.88;9.50;;;;;;;-144.32;100.00;68061.97;10360495;28;20562;-74
2024/01/09 03:46:52;;;;;;;16.55;9.18;;;;;;;-144.32;100.00;68061.97;10354233;28;20041;-75
2024/01/09 03:52:51;;;;;;;20.80;9.77;;;;;;;-144.32;100.00;68061.97;10350739;28;20077;-76
2024/01/09 03:58:51;;;;;;;22.20;10.05;;;;;;;-144.32;100.00;68061.97;10353582;28;20507;-76
2024/01/09 04:04:50;;;;;;;19.92;11.07;;;;;;;-144.32;100.00;68061.97;10338632;28;20809;-75
2024/01/09 04:10:49;;;;;;;21.67;10.82;;;;;;;-144.32;100.00;68061.97;10350537;28;21132;-73
2024/01/09 04:16:49;;;;;;;21.88;9.90;;;;;;;-144.32;100.00;68061.97;10365619;28;20042;-73
2024/01/09 04:22:48;;;;;;;17.05;8.93;;;;;;;-144.32;100.00;68061.97;10358210;28;20054;-75
2024/01/09 04:28:47;;;;;;;18.83;9.82;;;;;;;-144.32;100.00;68061.97;10360909;28;20084;-75
2024/01/09 04:34:46;;;;;;;16.42;9.18;;;;;;;-144.32;100.00;68061.97;10349748;28;20104;-75
2024/01/09 04:40:45;;;;;;;20.63;10.65;;;;;;;-144.32;100.00;68061.97;10360496;28;20060;-74
2024/01/09 04:46:44;;;;;;;19.13;10.18;;;;;;;-144.32;100.00;68061.97;10343666;28;20049;-75
2024/01/09 04:52:43;;;;;;;24.77;11.45;;;;;;;-144.32;100.00;68061.97;10349053;28;20044;-74
2024/01/09 04:58:42;;;;;;;19.88;11.30;;;;;;;-144.32;100.00;68061.97;10359459;28;20069;-74
2024/01/09 05:04:41;;;;;;;25.00;12.40;;;;;;;-144.32;100.00;68061.97;10357470;28;20513;-75
2024/01/09 05:10:40;;;;;;;21.67;10.75;;;;;;;-144.32;100.00;68061.97;10357556;28;20768;-74
2024/01/09 05:16:39;;;;;;;20.50;10.80;;;;;;;-144.32;100.00;68061.97;10353809;28;20038;-75
2024/01/09 05:22:38;;;;;;;24.52;12.38;;;;;;;-144.32;100.00;68061.97;10358328;28;20041;-75
2024/01/09 05:28:37;;;;;;;18.55;9.85;;;;;;;-144.32;100.00;68061.97;10355420;28;20107;-76
2024/01/09 05:34:36;;;;;;;20.70;10.43;;;;;;;-144.32;100.00;68061.97;10355798;28;20046;-76
2024/01/09 05:40:35;;;;;;;24.55;10.52;;;;;;;-144.32;100.00;68061.97;10358871;28;20042;-75
2024/01/09 05:46:34;;;;;;;22.30;10.20;;;;;;;-144.32;100.00;68061.97;10345617;28;20045;-76
2024/01/09 05:52:37;;;;;;;21.35;10.32;;;;;;;-144.32;100.00;68061.97;10355650;28;20108;-75
2024/01/09 05:58:36;;;;;;;21.92;10.15;;;;;;;-144.32;100.00;68061.97;10354177;28;20422;-73
2024/01/09 06:04:35;;;;;;;20.95;9.50;;;;;;;-144.32;100.00;68061.97;10351954;28;20421;-76
2024/01/09 06:10:34;;;;;;;23.70;10.00;;;;;;;-144.32;100.00;68061.97;10368296;28;20048;-76
2024/01/09 06:16:33;;;;;;;20.00;9.77;;;;;;;-144.32;100.00;68061.97;10363993;28;20048;-76
2024/01/09 06:22:32;;;;;;;17.25;8.00;;;;;;;-144.32;100.00;68061.97;10341633;28;20097;-76
2024/01/09 06:28:33;;;;;;;17.45;8.50;;;;;;;-144.32;100.00;68061.97;10344467;28;20053;-76
2024/01/09 06:34:34;;;;;;;16.65;8.52;;;;;;;-144.32;100.00;68061.97;10345177;28;20626;-73
2024/01/09 06:40:34;;;;;;;12.98;8.35;;;;;;;-144.32;100.00;68061.97;10350494;28;20054;-74
2024/01/09 06:46:33;;;;;;;16.70;8.18;;;;;;;-144.32;100.00;68061.97;10357577;28;20070;-75
2024/01/09 06:52:32;;;;;;;14.25;7.22;;;;;;;-144.32;100.00;68061.97;10359456;28;20037;-76
2024/01/09 06:58:31;;;;;;;14.45;6.60;;;;;;;-144.32;100.00;68061.97;10355665;28;20050;-77
2024/01/09 07:04:30;;;;;;;14.95;6.68;;;;;;;-144.32;100.00;68061.97;10354016;28;20049;-76
2024/01/09 07:10:29;;;;;;;12.48;6.25;;;;;;;-144.32;100.00;68061.97;10346481;28;20065;-77
2024/01/09 07:16:29;;;;;;;13.82;6.47;;;;;;;-144.32;100.00;68061.97;10352751;28;20191;-74
2024/01/09 07:22:28;;;;;;;10.98;5.82;;;;;;;-144.32;100.00;68061.97;10350721;28;20065;-76
2024/01/09 07:28:27;;;;;;;14.43;7.07;;;;;;;-144.32;100.00;68061.97;10340211;28;20851;-75
2024/01/09 07:34:26;;;;;;;12.63;8.52;;;;;;;-144.32;100.00;68061.97;10330570;28;20073;-75
2024/01/09 07:40:25;;;;;;;13.02;5.80;;;;;;;-144.32;100.00;68061.97;10341901;28;20057;-76
2024/01/09 07:46:24;;;;;;;12.25;5.97;;;;;;;-144.32;100.00;68061.97;10366605;28;20053;-74
2024/01/09 07:52:23;;;;;;;11.52;5.85;;;;;;;-144.32;100.00;68061.97;10365715;28;20050;-75
2024/01/09 07:58:22;;;;;;;12.73;5.80;;;;;;;-144.32;100.00;68061.97;10363434;28;20038;-75
2024/01/09 08:04:22;;;;;;;13.27;6.18;;;;;;;-144.32;100.00;68061.97;10365071;28;20079;-74
2024/01/09 08:10:22;;;;;;;15.70;6.43;;;;;;;-144.32;100.00;68061.97;10365769;28;20045;-72
2024/01/09 08:16:22;;;;;;;14.73;6.63;;;;;;;-144.32;100.00;68061.97;10352789;28;20128;-75
2024/01/09 08:22:21;;;;;;;11.18;6.22;;;;;;;-144.32;100.00;68061.97;10344632;28;20058;-74
2024/01/09 08:28:20;;;;;;;10.00;5.97;;;;;;;-144.32;100.00;68061.97;10360340;28;20041;-75
2024/01/09 08:34:19;;;;;;;11.73;5.43;;;;;;;-144.32;100.00;68061.97;10363725;28;20057;-75
2024/01/09 08:40:18;;;;;;;11.02;6.13;;;;;;;-144.32;100.00;68061.97;10360958;28;20124;-73
2024/01/09 08:46:17;;;;;;;12.93;6.07;;;;;;;-144.32;100.00;68061.97;10360537;28;20498;-74
2024/01/09 08:52:21;;;;;;;10.75;6.32;;;;;;;-144.32;100.00;68061.97;10362169;28;20120;-74
2024/01/09 08:58:20;;;;;;;12.02;5.90;;;;;;;-144.32;100.00;68061.97;10355192;28;20041;-77
2024/01/09 09:04:19;;;;;;;10.85;5.00;;;;;;;-144.32;100.00;68061.97;10363096;28;20050;-76
2024/01/09 09:10:18;;;;;;;12.65;5.40;;;;;;;-144.32;100.00;68061.97;10358712;28;20151;-75
2024/01/09 09:16:17;;;;;;;10.93;5.45;;;;;;;-144.32;100.00;68061.97;10354865;28;20634;-76
2024/01/09 09:22:16;;;;;;;10.23;4.88;;;;;;;-144.32;100.00;68061.97;10363148;28;20200;-75
2024/01/09 09:28:15;;;;;;;10.82;5.80;;;;;;;-144.32;100.00;68061.97;10365943;28;20041;-78
2024/01/09 09:34:14;;;;;;;13.13;5.70;;;;;;;-144.32;100.00;68061.97;10389710;28;20047;-77
2024/01/09 09:40:13;;;;;;;12.52;5.32;;;;;;;-144.32;100.00;68061.97;10367192;28;20129;-77
2024/01/09 09:46:17;;;;;;;9.35;5.25;;;;;;;-144.32;100.00;68061.97;10346802;28;20044;-78
2024/01/09 09:52:18;;;;;;;11.02;5.75;;;;;;;-144.32;100.00;68061.97;10342162;28;20179;-77
2024/01/09 09:58:17;;;;;;;9.02;4.90;;;;;;;-144.32;100.00;68061.97;10342984;28;20095;-80
2024/01/09 10:04:27;;;;;;;8.68;5.22;;;;;;;-144.32;100.00;68061.97;10348959;28;20781;-76
2024/01/09 10:10:32;;;;;;;8.07;5.20;;;;;;;-144.32;100.00;68061.97;10359015;28;20057;-77
2024/01/09 10:16:47;;;;;;;9.82;5.28;;;;;;;-144.32;100.00;68061.97;10357524;28;20061;-78
2024/01/09 10:22:48;;;;;;;8.55;4.57;;;;;;;-144.32;100.00;68061.97;10357196;28;20049;-78
2024/01/09 10:28:48;;;;;;;16.88;5.15;;;;;;;-144.32;100.00;68061.97;10350989;28;20045;-78
2024/01/09 10:34:47;;;;;;;7.90;4.65;;;;;;;-144.32;100.00;68061.97;10350053;28;20128;-79
2024/01/09 10:40:46;;;;;;;7.85;4.65;;;;;;;-144.32;100.00;68061.97;10356587;28;20052;-79
2024/01/09 10:46:45;;;;;;;8.45;4.80;;;;;;;-144.32;100.00;68061.97;10356415;28;20067;-78
2024/01/09 10:52:47;;;;;;;8.57;4.55;;;;;;;-144.32;100.00;68061.97;10353535;28;20075;-77
2024/01/09 10:58:46;;;;;;;10.18;4.63;;;;;;;-144.32;100.00;68061.97;10357653;28;20060;-78
2024/01/09 11:04:45;;;;;;;8.07;4.50;;;;;;;-144.32;100.00;68061.97;10354374;28;20052;-79
2024/01/09 11:10:47;;;;;;;8.90;4.63;;;;;;;-144.32;100.00;68061.97;10349879;28;20093;-83
2024/01/09 11:16:48;;;;;;;7.25;4.43;;;;;;;-144.32;100.00;68061.97;10363922;28;20111;-80
2024/01/09 11:22:47;;;;;;;7.35;4.00;;;;;;;-144.32;100.00;68061.97;10365822;28;20081;-81
2024/01/09 11:28:46;;;;;;;9.65;3.83;;;;;;;-144.32;100.00;68061.97;10370000;28;20088;-80
2024/01/09 11:35:06;;;;;;;7.50;3.83;;;;;;;-144.32;100.00;68061.97;10341625;28;20053;-81
2024/01/09 11:41:08;;;;;;;7.53;3.92;;;;;;;-144.32;100.00;68061.97;10355534;28;20068;-77
2024/01/09 11:47:07;;;;;;;7.40;4.18;;;;;;;-144.32;100.00;68061.97;10339137;28;20077;-79
2024/01/09 11:53:07;;;;;;;5.32;3.83;;;;;;;-144.32;100.00;68061.97;10352325;28;20084;-79
2024/01/09 11:59:07;;;;;;;6.15;4.10;;;;;;;-144.32;100.00;68061.97;10340720;28;20046;-78
2024/01/09 12:05:07;;;;;;;8.93;3.47;;;;;;;-144.32;100.00;68061.97;10356224;28;20049;-81
2024/01/09 12:11:06;;;;;;;6.28;3.75;;;;;;;-144.32;100.00;68061.97;10368443;28;20049;-80
2024/01/09 12:17:22;;;;;;;5.78;3.85;;;;;;;-144.32;100.00;68061.97;10387820;28;20587;-81
2024/01/09 12:23:21;;;;;;;6.83;3.80;;;;;;;-144.32;100.00;68061.97;10353936;28;20073;-77
2024/01/09 12:29:20;;;;;;;8.20;3.80;;;;;;;-144.32;100.00;68061.97;10365053;28;20041;-76
2024/01/09 12:35:21;;;;;;;8.82;3.85;;;;;;;-144.32;100.00;68061.97;10373831;28;20165;-79
2024/01/09 12:41:21;;;;;;;6.88;3.80;;;;;;;-144.32;100.00;68061.97;10380217;28;20065;-81
2024/01/09 12:47:21;;;;;;;7.45;4.13;;;;;;;-144.32;100.00;68061.97;10379474;28;20101;-78
2024/01/09 12:53:20;;;;;;;9.07;4.38;;;;;;;-144.32;100.00;68061.97;10375079;28;20112;-79
2024/01/09 12:59:22;;;;;;;6.15;3.83;;;;;;;-144.32;100.00;68061.97;10350811;28;20138;-81
2024/01/09 13:05:23;;;;;;;7.75;4.00;;;;;;;-144.32;100.00;68061.97;10381808;28;20033;-81
2024/01/09 13:11:22;;;;;;;7.80;3.90;;;;;;;-144.32;100.00;68061.97;10425628;28;20049;-79
2024/01/09 13:17:22;;;;;;;7.75;3.97;;;;;;;-144.32;100.00;68061.97;10396993;28;20081;-82
2024/01/09 13:23:25;;;;;;;10.32;4.30;;;;;;;-144.32;100.00;68061.97;10363242;28;20077;-80
2024/01/09 13:29:27;;;;;;;7.97;3.78;;;;;;;-144.32;100.00;68061.97;10362294;28;20045;-78
2024/01/09 13:35:27;;;;;;;6.15;3.88;;;;;;;-144.32;100.00;68061.97;10351530;28;20050;-81
2024/01/09 13:41:26;;;;;;;4.50;3.20;;;;;;;-144.32;100.00;68061.97;10350097;28;20474;-79
2024/01/09 13:47:27;;;;;;;6.35;3.58;;;;;;;-144.32;100.00;68061.97;10377689;28;20898;-80
2024/01/09 13:53:26;;;;;;;6.60;3.58;;;;;;;-144.32;100.00;68061.97;10365397;28;20045;-81
2024/01/09 13:59:25;;;;;;;6.45;3.45;;;;;;;-144.32;100.00;68061.97;10356446;28;20076;-79
2024/01/09 14:05:24;;;;;;;6.53;3.45;;;;;;;-144.32;100.00;68061.97;10359345;28;20050;-77
2024/01/09 14:11:23;;;;;;;13.38;7.10;;;;;;;-144.32;100.00;68061.97;10355558;28;20111;-80
2024/01/09 14:17:22;;;;;;;9.32;4.32;;;;;;;-144.32;100.00;68061.97;10351274;28;20772;-77
2024/01/09 14:23:25;;;;;;;6.55;3.65;;;;;;;-144.32;100.00;68061.97;10361420;28;20551;-77
2024/01/09 14:29:27;;;;;;;5.95;3.47;;;;;;;-144.32;100.00;68061.97;10348212;28;20042;-78
2024/01/09 14:35:26;;;;;;;6.60;3.47;;;;;;;-144.32;100.00;68061.97;10353747;28;20060;-77
2024/01/09 14:41:25;;;;;;;5.15;3.67;;;;;;;-144.32;100.00;68061.97;10355763;28;20533;-77
2024/01/09 14:47:24;;;;;;;6.57;3.97;;;;;;;-144.32;100.00;68061.97;10353807;28;20053;-76
2024/01/09 14:53:24;;;;;;;7.78;4.15;;;;;;;-144.32;100.00;68061.97;10352841;28;20041;-78
2024/01/09 14:59:23;;;;;;;7.47;3.97;;;;;;;-144.32;100.00;68061.97;10381996;28;20458;-76
2024/01/09 15:05:22;;;;;;;6.38;4.13;;;;;;;-144.32;100.00;68061.97;10337093;28;20939;-76
2024/01/09 15:11:21;;;;;;;7.38;3.95;;;;;;;-144.32;100.00;68061.97;10326551;28;20046;-76
2024/01/09 15:17:21;;;;;;;7.47;3.85;;;;;;;-144.32;100.00;68061.97;10333073;28;20465;-77
2024/01/09 15:23:20;;;;;;;8.80;4.80;;;;;;;-144.32;100.00;68061.97;10332866;28;20056;-79
2024/01/09 15:29:19;;;;;;;9.80;5.05;;;;;;;-144.32;100.00;68061.97;10343785;28;20474;-77
2024/01/09 15:35:18;;;;;;;7.60;4.50;;;;;;;-144.32;100.00;68061.97;10333392;28;20077;-78
2024/01/09 15:41:19;;;;;;;8.23;4.00;;;;;;;-144.32;100.00;68061.97;10350811;28;20792;-76
2024/01/09 15:47:21;;;;;;;8.15;4.07;;;;;;;-144.32;100.00;68061.97;10350044;28;20125;-78
2024/01/09 15:53:20;;;;;;;7.53;4.47;;;;;;;-144.32;100.00;68061.97;10345422;28;20052;-79
2024/01/09 15:59:19;;;;;;;6.20;4.22;;;;;;;-144.32;100.00;68061.97;10354178;28;20055;-79
2024/01/09 16:05:19;;;;;;;6.70;4.22;;;;;;;-144.32;100.00;68061.97;10356129;28;20071;-79
2024/01/09 16:11:18;;;;;;;9.02;4.70;;;;;;;-144.32;100.00;68061.97;10374188;28;20067;-75
2024/01/09 16:17:19;;;;;;;7.47;4.20;;;;;;;-144.32;100.00;68061.97;10360146;28;20104;-76
2024/01/09 16:23:18;;;;;;;9.15;4.57;;;;;;;-144.32;100.00;68061.97;10358477;28;20045;-77
2024/01/09 16:29:18;;;;;;;7.03;4.13;;;;;;;-144.32;100.00;68061.97;10357907;28;20045;-78
2024/01/09 16:35:19;;;;;;;7.45;4.28;;;;;;;-144.32;100.00;68061.97;10364977;28;20498;-79
2024/01/09 16:41:19;;;;;;;7.68;4.20;;;;;;;-144.32;100.00;68061.97;10363585;28;20058;-76
2024/01/09 16:47:17;;;;;;;8.85;4.43;;;;;;;-144.32;100.00;68061.97;10380522;28;20041;-77
2024/01/09 16:53:16;;;;;;;6.70;4.20;;;;;;;-144.32;100.00;68061.97;10382230;28;20050;-76
2024/01/09 16:59:18;;;;;;;6.88;4.25;;;;;;;-144.32;100.00;68061.97;10353106;28;20737;-76
2024/01/09 17:05:17;;;;;;;8.63;4.63;;;;;;;-144.32;100.00;68061.97;10357916;28;20136;-78
2024/01/09 17:11:17;;;;;;;8.80;5.03;;;;;;;-144.32;100.00;68061.97;10344355;28;20041;-77
2024/01/09 17:17:17;;;;;;;8.73;5.05;;;;;;;-144.32;100.00;68061.97;10331455;28;20556;-80
2024/01/09 17:23:16;;;;;;;7.38;4.53;;;;;;;-144.32;100.00;68061.97;10336913;28;20397;-80
2024/01/09 17:29:15;;;;;;;8.80;4.38;;;;;;;-144.32;100.00;68061.97;10354536;28;20049;-82
2024/01/09 17:35:15;;;;;;;7.90;3.95;;;;;;;-144.32;100.00;68061.97;10362728;28;20061;-76
2024/01/09 17:41:14;;;;;;;6.63;4.15;;;;;;;-144.32;100.00;68061.97;10356291;28;20042;-79
2024/01/09 17:47:13;;;;;;;7.38;4.18;;;;;;;-144.32;100.00;68061.97;10358185;28;20046;-85
2024/01/09 17:53:12;;;;;;;8.57;4.38;;;;;;;-144.32;100.00;68061.97;10370704;28;20053;-80
2024/01/09 17:59:11;;;;;;;7.15;4.20;;;;;;;-144.32;100.00;68061.97;10342278;28;20053;-79
2024/01/09 18:05:11;;;;;;;8.05;4.20;;;;;;;-144.32;100.00;68061.97;10304781;28;20100;-83
2024/01/09 18:11:19;;;;;;;8.30;4.13;;;;;;;-144.32;100.00;68061.97;10314757;28;20052;-79
2024/01/09 18:23:31;;;;;;;9.77;5.55;;;;;;;-144.32;100.00;68061.97;10313131;28;20069;-84
2024/01/09 18:29:30;;;;;;;11.40;6.25;;;;;;;-144.32;100.00;68061.97;10308678;28;20526;-80
2024/01/09 18:35:32;;;;;;;9.48;5.60;;;;;;;-144.32;100.00;68061.97;10329895;28;20042;-80
2024/01/09 18:41:33;;;;;;;13.60;6.22;;;;;;;-144.32;100.00;68061.97;10371170;28;20053;-85
2024/01/09 18:54:07;;;;;;;11.75;6.07;;;;;;;-144.32;100.00;68061.97;10409242;28;20056;-81
2024/01/09 19:00:08;;;;;;;13.82;6.78;;;;;;;-144.32;100.00;68061.97;10382517;28;20060;-76
2024/01/09 19:06:09;;;;;;;11.68;6.70;;;;;;;-144.32;100.00;68061.97;10405197;28;20053;-79
2024/01/09 19:12:10;;;;;;;14.77;7.68;;;;;;;-144.32;100.00;68061.97;10400687;28;20061;-76
2024/01/09 19:18:10;;;;;;;12.15;6.35;;;;;;;-144.32;100.00;68061.97;10405460;28;20052;-82
2024/01/09 19:24:11;;;;;;;13.13;5.85;;;;;;;-144.32;100.00;68061.97;10424229;28;20124;-83
2024/01/09 19:30:10;;;;;;;10.85;6.93;;;;;;;-144.32;100.00;68061.97;10399147;28;20054;-79
2024/01/09 19:36:09;;;;;;;14.73;7.03;;;;;;;-144.32;100.00;68061.97;10429357;28;20057;-80
2024/01/09 19:42:14;;;;;;;11.27;6.88;;;;;;;-144.32;100.00;68061.97;10401826;28;20057;-82
2024/01/09 19:48:17;;;;;;;;;;;;;;;-144.32;100.00;68061.97;10399847;28;20430;-84
2024/01/09 20:00:55;;;;;;;14.70;7.15;;;;;;;-144.32;100.00;68061.97;10365417;28;20053;-87
2024/01/09 20:06:54;;;;;;;12.50;6.63;;;;;;;-144.32;100.00;68061.97;10389915;28;20061;-78
2024/01/09 20:12:53;;;;;;;14.23;7.20;;;;;;;-144.32;100.00;68061.97;10394339;28;20112;-83
2024/01/09 20:18:52;;;;;;;13.02;6.93;;;;;;;-144.32;100.00;68061.97;10379766;28;20085;-81
2024/01/09 20:24:51;;;;;;;13.57;7.35;;;;;;;-144.32;100.00;68061.97;10401730;28;20061;-80
2024/01/09 20:30:50;;;;;;;11.07;6.70;;;;;;;-144.32;100.00;68061.97;10452252;28;20057;-85
2024/01/09 20:36:49;;;;;;;14.70;7.50;;;;;;;-144.32;100.00;68061.97;10449637;28;20061;-79
2024/01/09 20:42:48;;;;;;;17.00;8.40;;;;;;;-144.32;100.00;68061.97;10404806;28;20098;-80
2024/01/09 20:48:48;;;;;;;13.25;7.28;;;;;;;-144.32;100.00;68061.97;10404687;28;20065;-79
2024/01/09 21:01:01;;;;;;;13.27;7.30;;;;;;;-144.32;100.00;68061.97;10395055;28;20144;-81
2024/01/09 21:07:00;;;;;;;15.30;6.55;;;;;;;-144.32;100.00;68061.97;10374917;28;20144;-80
2024/01/09 21:13:00;;;;;;;13.15;7.03;;;;;;;-144.32;100.00;68061.97;10399206;28;20436;-82
2024/01/09 21:18:59;;;;;;;13.95;6.90;;;;;;;-144.32;100.00;68061.97;10405076;28;20049;-79
2024/01/09 21:24:58;;;;;;;11.35;6.22;;;;;;;-144.32;100.00;68061.97;10400951;28;20219;-80
2024/01/09 21:30:57;;;;;;;9.82;6.30;;;;;;;-144.32;100.00;68061.97;10401121;28;20061;-82
2024/01/09 21:36:56;;;;;;;13.90;7.10;;;;;;;-144.32;100.00;68061.97;10366519;28;20058;-77
2024/01/09 21:42:55;;;;;;;11.98;6.47;;;;;;;-144.32;100.00;68061.97;10361984;28;20061;-79
2024/01/09 21:48:54;;;;;;;13.43;6.60;;;;;;;-144.32;100.00;68061.97;10326960;28;20068;-81
2024/01/09 21:54:53;;;;;;;13.10;7.07;;;;;;;-144.32;100.00;68061.97;10367342;28;20060;-82
2024/01/09 22:00:52;;;;;;;14.82;7.07;;;;;;;-144.32;100.00;68061.97;10380470;28;20070;-84
2024/01/09 22:06:53;;;;;;;13.40;6.97;;;;;;;-144.32;100.00;68061.97;10392304;28;21206;-80
2024/01/09 22:12:52;;;;;;;11.50;6.82;;;;;;;-144.32;100.00;68061.97;10385409;28;20065;-80
2024/01/09 22:18:51;;;;;;;12.82;6.80;;;;;;;-144.32;100.00;68061.97;10391097;28;20493;-78
2024/01/09 22:24:50;;;;;;;26.20;13.30;;;;;;;-144.32;100.00;68061.97;10387925;28;20073;-78
2024/01/09 22:30:49;;;;;;;13.05;7.20;;;;;;;-144.32;100.00;68061.97;10400096;28;20100;-84
2024/01/09 22:36:48;;;;;;;12.40;6.28;;;;;;;-144.32;100.00;68061.97;10389937;28;20052;-80
2024/01/09 22:42:47;;;;;;;13.05;6.53;;;;;;;-144.32;100.00;68061.97;10425033;28;20116;-82
2024/01/09 22:48:46;;;;;;;11.63;6.65;;;;;;;-144.32;100.00;68061.97;10420573;28;20058;-80
2024/01/09 22:54:47;;;;;;;12.57;7.28;;;;;;;-144.32;100.00;68061.97;10405388;28;20472;-84
2024/01/09 23:00:47;;;;;;;12.68;6.57;;;;;;;-144.32;100.00;68061.97;10391168;28;20092;-83
2024/01/09 23:06:47;;;;;;;14.05;6.65;;;;;;;-144.32;100.00;68061.97;10405130;28;20219;-81
2024/01/09 23:12:46;;;;;;;12.55;6.53;;;;;;;-144.32;100.00;68061.97;10415894;28;20044;-84
2024/01/09 23:18:46;;;;;;;14.70;7.53;;;;;;;-144.32;100.00;68061.97;10374715;28;20049;-87
2024/01/09 23:24:49;;;;;;;14.95;6.88;;;;;;;-144.32;100.00;68061.97;10382188;28;20432;-81
2024/01/09 23:30:50;;;;;;;13.32;6.72;;;;;;;-144.32;100.00;68061.97;10383293;28;20100;-78
2024/01/09 23:36:49;;;;;;;14.93;6.65;;;;;;;-144.32;100.00;68061.97;10397466;28;20072;-85
2024/01/09 23:42:48;;;;;;;13.38;6.50;;;;;;;-144.32;100.00;68061.97;10365896;28;20652;-83
2024/01/09 23:48:47;;;;;;;12.68;6.78;;;;;;;-144.32;100.00;68061.97;10376259;28;20054;-82
2024/01/09 23:54:48;;;;;;;13.45;7.28;;;;;;;-144.32;100.00;68061.97;10392967;28;20524;-79
